sensor_id;sensor_type;location;lat;lon;timestamp;temperature;humidity
26107;DHT22;13866;50.748;12.630;2022-11-20T00:01:19;-7.20;99.90
26107;DHT22;13866;50.748;12.630;2022-11-20T00:03:45;-7.10;99.90
26107;DHT22;13866;50.748;12.630;2022-11-20T00:06:16;-7.10;99.90
26107;DHT22;13866;50.748;12.630;2022-11-20T00:08:42;-7.10;99.90
26107;DHT22;13866;50.748;12.630;2022-11-20T00:11:10;-7.10;99.90
26107;DHT22;13866;50.748;12.630;2022-11-20T00:13:36;-7.10;99.90
26107;DHT22;13866;50.748;12.630;2022-11-20T00:16:04;-7.10;99.90
26107;DHT22;13866;50.748;12.630;2022-11-20T00:18:30;-7.10;99.90
26107;DHT22;13866;50.748;12.630;2022-11-20T00:21:07;-7.30;99.90
26107;DHT22;13866;50.748;12.630;2022-11-20T00:23:35;-7.30;99.90
26107;DHT22;13866;50.748;12.630;2022-11-20T00:26:05;-7.40;99.90
26107;DHT22;13866;50.748;12.630;2022-11-20T00:28:31;-7.50;99.90
26107;DHT22;13866;50.748;12.630;2022-11-20T00:31:08;-7.50;99.90
26107;DHT22;13866;50.748;12.630;2022-11-20T00:33:34;-7.50;99.90
26107;DHT22;13866;50.748;12.630;2022-11-20T00:36:02;-7.40;99.90
26107;DHT22;13866;50.748;12.630;2022-11-20T00:38:27;-7.40;99.90
26107;DHT22;13866;50.748;12.630;2022-11-20T00:41:01;-7.40;99.90
26107;DHT22;13866;50.748;12.630;2022-11-20T00:43:27;-7.30;99.90
26107;DHT22;13866;50.748;12.630;2022-11-20T00:46:07;-7.30;99.90
26107;DHT22;13866;50.748;12.630;2022-11-20T00:48:34;-7.40;99.90
26107;DHT22;13866;50.748;12.630;2022-11-20T00:50:59;-7.30;99.90
26107;DHT22;13866;50.748;12.630;2022-11-20T00:53:25;-7.40;99.90
26107;DHT22;13866;50.748;12.630;2022-11-20T00:55:58;-7.50;99.90
26107;DHT22;13866;50.748;12.630;2022-11-20T00:58:25;-7.40;99.90
26107;DHT22;13866;50.748;12.630;2022-11-20T01:00:53;-7.40;99.90
26107;DHT22;13866;50.748;12.630;2022-11-20T01:03:19;-7.40;99.90
26107;DHT22;13866;50.748;12.630;2022-11-20T01:05:44;-7.30;99.90
26107;DHT22;13866;50.748;12.630;2022-11-20T01:08:10;-7.30;99.90
26107;DHT22;13866;50.748;12.630;2022-11-20T01:10:36;-7.20;99.90
26107;DHT22;13866;50.748;12.630;2022-11-20T01:13:01;-7.30;99.90
26107;DHT22;13866;50.748;12.630;2022-11-20T01:15:45;-7.30;99.90
26107;DHT22;13866;50.748;12.630;2022-11-20T01:18:11;-7.40;99.90
26107;DHT22;13866;50.748;12.630;2022-11-20T01:20:37;-7.40;99.90
26107;DHT22;13866;50.748;12.630;2022-11-20T01:23:03;-7.40;99.90
26107;DHT22;13866;50.748;12.630;2022-11-20T01:25:29;-7.40;99.90
26107;DHT22;13866;50.748;12.630;2022-11-20T01:27:54;-7.40;99.90
26107;DHT22;13866;50.748;12.630;2022-11-20T01:30:20;-7.40;99.90
26107;DHT22;13866;50.748;12.630;2022-11-20T01:32:46;-7.50;99.90
26107;DHT22;13866;50.748;12.630;2022-11-20T01:35:11;-7.50;99.90
26107;DHT22;13866;50.748;12.630;2022-11-20T01:37:36;-7.60;99.90
26107;DHT22;13866;50.748;12.630;2022-11-20T01:40:02;-7.70;99.90
26107;DHT22;13866;50.748;12.630;2022-11-20T01:42:28;-7.70;99.90
26107;DHT22;13866;50.748;12.630;2022-11-20T01:48:09;-7.60;99.90
26107;DHT22;13866;50.748;12.630;2022-11-20T01:50:35;-7.60;99.90
26107;DHT22;13866;50.748;12.630;2022-11-20T01:53:03;-7.50;99.90
26107;DHT22;13866;50.748;12.630;2022-11-20T01:55:33;-7.50;99.90
26107;DHT22;13866;50.748;12.630;2022-11-20T01:58:00;-7.50;99.90
26107;DHT22;13866;50.748;12.630;2022-11-20T02:00:26;-7.50;99.90
26107;DHT22;13866;50.748;12.630;2022-11-20T02:02:57;-7.60;99.90
26107;DHT22;13866;50.748;12.630;2022-11-20T02:05:25;-7.60;99.90
26107;DHT22;13866;50.748;12.630;2022-11-20T02:07:52;-7.60;99.90
26107;DHT22;13866;50.748;12.630;2022-11-20T02:10:19;-7.60;99.90
26107;DHT22;13866;50.748;12.630;2022-11-20T02:12:45;-7.70;99.90
26107;DHT22;13866;50.748;12.630;2022-11-20T02:15:30;-7.70;99.90
26107;DHT22;13866;50.748;12.630;2022-11-20T02:17:57;-7.70;99.90
26107;DHT22;13866;50.748;12.630;2022-11-20T02:20:22;-7.60;99.90
26107;DHT22;13866;50.748;12.630;2022-11-20T02:23:05;-7.50;99.90
26107;DHT22;13866;50.748;12.630;2022-11-20T02:25:35;-7.50;99.90
26107;DHT22;13866;50.748;12.630;2022-11-20T02:28:02;-7.50;99.90
26107;DHT22;13866;50.748;12.630;2022-11-20T02:30:28;-7.40;99.90
26107;DHT22;13866;50.748;12.630;2022-11-20T02:32:54;-7.40;99.90
26107;DHT22;13866;50.748;12.630;2022-11-20T02:37:48;-7.20;99.90
26107;DHT22;13866;50.748;12.630;2022-11-20T02:40:14;-7.30;99.90
26107;DHT22;13866;50.748;12.630;2022-11-20T02:42:39;-7.40;99.90
26107;DHT22;13866;50.748;12.630;2022-11-20T02:45:06;-7.40;99.90
26107;DHT22;13866;50.748;12.630;2022-11-20T02:47:32;-7.40;99.90
26107;DHT22;13866;50.748;12.630;2022-11-20T02:49:57;-7.40;99.90
26107;DHT22;13866;50.748;12.630;2022-11-20T02:52:23;-7.40;99.90
26107;DHT22;13866;50.748;12.630;2022-11-20T02:54:49;-7.40;99.90
26107;DHT22;13866;50.748;12.630;2022-11-20T02:57:14;-7.40;99.90
26107;DHT22;13866;50.748;12.630;2022-11-20T02:59:40;-7.40;99.90
26107;DHT22;13866;50.748;12.630;2022-11-20T03:02:05;-7.40;99.90
26107;DHT22;13866;50.748;12.630;2022-11-20T03:04:31;-7.50;99.90
26107;DHT22;13866;50.748;12.630;2022-11-20T03:06:56;-7.60;99.90
26107;DHT22;13866;50.748;12.630;2022-11-20T03:09:22;-7.60;99.90
26107;DHT22;13866;50.748;12.630;2022-11-20T03:11:47;-7.60;99.90
26107;DHT22;13866;50.748;12.630;2022-11-20T03:14:13;-7.70;99.90
26107;DHT22;13866;50.748;12.630;2022-11-20T03:16:39;-7.80;99.90
26107;DHT22;13866;50.748;12.630;2022-11-20T03:19:05;-7.80;99.90
26107;DHT22;13866;50.748;12.630;2022-11-20T03:21:32;-7.70;99.90
26107;DHT22;13866;50.748;12.630;2022-11-20T03:23:58;-7.80;99.90
26107;DHT22;13866;50.748;12.630;2022-11-20T03:26:25;-7.80;99.90
26107;DHT22;13866;50.748;12.630;2022-11-20T03:28:53;-7.80;99.90
26107;DHT22;13866;50.748;12.630;2022-11-20T03:31:21;-7.80;99.90
26107;DHT22;13866;50.748;12.630;2022-11-20T03:33:47;-7.80;99.90
26107;DHT22;13866;50.748;12.630;2022-11-20T03:36:15;-7.90;99.90
26107;DHT22;13866;50.748;12.630;2022-11-20T03:38:41;-7.90;99.90
26107;DHT22;13866;50.748;12.630;2022-11-20T03:41:09;-7.90;99.90
26107;DHT22;13866;50.748;12.630;2022-11-20T03:43:35;-7.90;99.90
26107;DHT22;13866;50.748;12.630;2022-11-20T03:46:02;-7.90;99.90
26107;DHT22;13866;50.748;12.630;2022-11-20T03:48:27;-7.90;99.90
26107;DHT22;13866;50.748;12.630;2022-11-20T03:51:24;-7.90;99.90
26107;DHT22;13866;50.748;12.630;2022-11-20T03:53:52;-7.80;99.90
26107;DHT22;13866;50.748;12.630;2022-11-20T03:56:20;-7.90;99.90
26107;DHT22;13866;50.748;12.630;2022-11-20T03:58:46;-7.90;99.90
26107;DHT22;13866;50.748;12.630;2022-11-20T04:01:15;-7.90;99.90
26107;DHT22;13866;50.748;12.630;2022-11-20T04:03:42;-7.90;99.90
26107;DHT22;13866;50.748;12.630;2022-11-20T04:08:33;-7.80;99.90
26107;DHT22;13866;50.748;12.630;2022-11-20T04:11:32;-7.80;99.90
26107;DHT22;13866;50.748;12.630;2022-11-20T04:14:00;-7.80;99.90
26107;DHT22;13866;50.748;12.630;2022-11-20T04:16:29;-7.90;99.90
26107;DHT22;13866;50.748;12.630;2022-11-20T04:18:56;-8.00;99.90
26107;DHT22;13866;50.748;12.630;2022-11-20T04:21:22;-8.00;99.90
26107;DHT22;13866;50.748;12.630;2022-11-20T04:23:49;-8.10;99.90
26107;DHT22;13866;50.748;12.630;2022-11-20T04:26:14;-8.20;99.90
26107;DHT22;13866;50.748;12.630;2022-11-20T04:28:40;-8.20;99.90
26107;DHT22;13866;50.748;12.630;2022-11-20T04:33:33;-8.20;99.90
26107;DHT22;13866;50.748;12.630;2022-11-20T04:36:04;-8.20;99.90
26107;DHT22;13866;50.748;12.630;2022-11-20T04:38:30;-8.10;99.90
26107;DHT22;13866;50.748;12.630;2022-11-20T04:41:00;-8.20;99.90
26107;DHT22;13866;50.748;12.630;2022-11-20T04:43:26;-8.30;99.90
26107;DHT22;13866;50.748;12.630;2022-11-20T04:45:53;-8.30;99.90
26107;DHT22;13866;50.748;12.630;2022-11-20T04:48:18;-8.20;99.90
26107;DHT22;13866;50.748;12.630;2022-11-20T04:50:44;-8.30;99.90
26107;DHT22;13866;50.748;12.630;2022-11-20T04:53:09;-8.30;99.90
26107;DHT22;13866;50.748;12.630;2022-11-20T04:55:35;-8.30;99.90
26107;DHT22;13866;50.748;12.630;2022-11-20T04:58:00;-8.20;99.90
26107;DHT22;13866;50.748;12.630;2022-11-20T05:00:26;-8.20;99.90
26107;DHT22;13866;50.748;12.630;2022-11-20T05:02:51;-8.10;99.90
26107;DHT22;13866;50.748;12.630;2022-11-20T05:05:17;-8.10;99.90
26107;DHT22;13866;50.748;12.630;2022-11-20T05:07:43;-8.10;99.90
26107;DHT22;13866;50.748;12.630;2022-11-20T05:10:08;-8.10;99.90
26107;DHT22;13866;50.748;12.630;2022-11-20T05:12:34;-8.10;99.90
26107;DHT22;13866;50.748;12.630;2022-11-20T05:14:59;-8.10;99.90
26107;DHT22;13866;50.748;12.630;2022-11-20T05:17:25;-8.10;99.90
26107;DHT22;13866;50.748;12.630;2022-11-20T05:19:50;-8.10;99.90
26107;DHT22;13866;50.748;12.630;2022-11-20T05:22:16;-8.20;99.90
26107;DHT22;13866;50.748;12.630;2022-11-20T05:24:41;-8.20;99.90
26107;DHT22;13866;50.748;12.630;2022-11-20T05:27:07;-8.20;99.90
26107;DHT22;13866;50.748;12.630;2022-11-20T05:29:32;-8.30;99.90
26107;DHT22;13866;50.748;12.630;2022-11-20T05:31:58;-8.20;99.90
26107;DHT22;13866;50.748;12.630;2022-11-20T05:34:23;-8.20;99.90
26107;DHT22;13866;50.748;12.630;2022-11-20T05:36:49;-8.20;99.90
26107;DHT22;13866;50.748;12.630;2022-11-20T05:39:14;-8.20;99.90
26107;DHT22;13866;50.748;12.630;2022-11-20T05:41:40;-8.20;99.90
26107;DHT22;13866;50.748;12.630;2022-11-20T05:44:05;-8.20;99.90
26107;DHT22;13866;50.748;12.630;2022-11-20T05:46:31;-8.20;99.90
26107;DHT22;13866;50.748;12.630;2022-11-20T05:48:57;-8.20;99.90
26107;DHT22;13866;50.748;12.630;2022-11-20T05:51:23;-8.30;99.90
26107;DHT22;13866;50.748;12.630;2022-11-20T05:53:49;-8.30;99.90
26107;DHT22;13866;50.748;12.630;2022-11-20T05:56:17;-8.30;99.90
26107;DHT22;13866;50.748;12.630;2022-11-20T05:58:43;-8.30;99.90
26107;DHT22;13866;50.748;12.630;2022-11-20T06:01:21;-8.30;99.90
26107;DHT22;13866;50.748;12.630;2022-11-20T06:03:47;-8.30;99.90
26107;DHT22;13866;50.748;12.630;2022-11-20T06:06:14;-8.30;99.90
26107;DHT22;13866;50.748;12.630;2022-11-20T06:08:40;-8.30;99.90
26107;DHT22;13866;50.748;12.630;2022-11-20T06:11:08;-8.30;99.90
26107;DHT22;13866;50.748;12.630;2022-11-20T06:13:34;-8.30;99.90
26107;DHT22;13866;50.748;12.630;2022-11-20T06:16:00;-8.30;99.90
26107;DHT22;13866;50.748;12.630;2022-11-20T06:18:27;-8.30;99.90
26107;DHT22;13866;50.748;12.630;2022-11-20T06:21:20;-8.20;99.90
26107;DHT22;13866;50.748;12.630;2022-11-20T06:23:46;-8.20;99.90
26107;DHT22;13866;50.748;12.630;2022-11-20T06:26:14;-8.30;99.90
26107;DHT22;13866;50.748;12.630;2022-11-20T06:28:40;-8.30;99.90
26107;DHT22;13866;50.748;12.630;2022-11-20T06:31:07;-8.30;99.90
26107;DHT22;13866;50.748;12.630;2022-11-20T06:33:33;-8.30;99.90
26107;DHT22;13866;50.748;12.630;2022-11-20T06:36:00;-8.20;99.90
26107;DHT22;13866;50.748;12.630;2022-11-20T06:38:26;-8.10;99.90
26107;DHT22;13866;50.748;12.630;2022-11-20T06:40:52;-8.00;99.90
26107;DHT22;13866;50.748;12.630;2022-11-20T06:43:18;-8.00;99.90
26107;DHT22;13866;50.748;12.630;2022-11-20T06:45:43;-8.00;99.90
26107;DHT22;13866;50.748;12.630;2022-11-20T06:48:09;-7.80;99.90
26107;DHT22;13866;50.748;12.630;2022-11-20T06:50:36;-7.80;99.90
26107;DHT22;13866;50.748;12.630;2022-11-20T06:53:03;-7.90;99.90
26107;DHT22;13866;50.748;12.630;2022-11-20T06:55:30;-7.90;99.90
26107;DHT22;13866;50.748;12.630;2022-11-20T06:57:55;-7.90;99.90
26107;DHT22;13866;50.748;12.630;2022-11-20T07:00:21;-7.80;99.90
26107;DHT22;13866;50.748;12.630;2022-11-20T07:02:47;-7.80;99.90
26107;DHT22;13866;50.748;12.630;2022-11-20T07:05:12;-7.80;99.90
26107;DHT22;13866;50.748;12.630;2022-11-20T07:07:38;-7.80;99.90
26107;DHT22;13866;50.748;12.630;2022-11-20T07:10:04;-7.90;99.90
26107;DHT22;13866;50.748;12.630;2022-11-20T07:12:29;-7.80;99.90
26107;DHT22;13866;50.748;12.630;2022-11-20T07:14:55;-7.70;99.90
26107;DHT22;13866;50.748;12.630;2022-11-20T07:17:20;-7.50;99.90
26107;DHT22;13866;50.748;12.630;2022-11-20T07:19:46;-7.40;99.90
26107;DHT22;13866;50.748;12.630;2022-11-20T07:22:11;-7.30;99.90
26107;DHT22;13866;50.748;12.630;2022-11-20T07:24:37;-7.10;99.90
26107;DHT22;13866;50.748;12.630;2022-11-20T07:27:02;-7.00;99.90
26107;DHT22;13866;50.748;12.630;2022-11-20T07:29:29;-6.90;99.90
26107;DHT22;13866;50.748;12.630;2022-11-20T07:31:54;-6.80;99.90
26107;DHT22;13866;50.748;12.630;2022-11-20T07:34:21;-6.80;99.90
26107;DHT22;13866;50.748;12.630;2022-11-20T07:36:47;-6.60;99.90
26107;DHT22;13866;50.748;12.630;2022-11-20T07:39:13;-6.40;99.90
26107;DHT22;13866;50.748;12.630;2022-11-20T07:41:38;-6.20;99.90
26107;DHT22;13866;50.748;12.630;2022-11-20T07:44:04;-6.10;99.90
26107;DHT22;13866;50.748;12.630;2022-11-20T07:46:30;-5.90;99.90
26107;DHT22;13866;50.748;12.630;2022-11-20T07:48:55;-5.80;99.90
26107;DHT22;13866;50.748;12.630;2022-11-20T07:51:21;-5.70;99.90
26107;DHT22;13866;50.748;12.630;2022-11-20T07:53:46;-5.60;99.90
26107;DHT22;13866;50.748;12.630;2022-11-20T07:56:12;-5.40;99.90
26107;DHT22;13866;50.748;12.630;2022-11-20T07:58:39;-5.40;99.90
26107;DHT22;13866;50.748;12.630;2022-11-20T08:01:08;-5.30;99.90
26107;DHT22;13866;50.748;12.630;2022-11-20T08:03:34;-5.20;99.90
26107;DHT22;13866;50.748;12.630;2022-11-20T08:06:00;-5.00;99.90
26107;DHT22;13866;50.748;12.630;2022-11-20T08:08:26;-5.00;99.90
26107;DHT22;13866;50.748;12.630;2022-11-20T08:10:52;-4.90;99.90
26107;DHT22;13866;50.748;12.630;2022-11-20T08:13:17;-4.90;99.90
26107;DHT22;13866;50.748;12.630;2022-11-20T08:16:01;-4.70;99.90
26107;DHT22;13866;50.748;12.630;2022-11-20T08:18:27;-4.50;99.90
26107;DHT22;13866;50.748;12.630;2022-11-20T08:20:53;-4.30;99.90
26107;DHT22;13866;50.748;12.630;2022-11-20T08:23:18;-4.10;99.90
26107;DHT22;13866;50.748;12.630;2022-11-20T08:25:49;-3.90;99.90
26107;DHT22;13866;50.748;12.630;2022-11-20T08:28:15;-3.80;99.90
26107;DHT22;13866;50.748;12.630;2022-11-20T08:30:40;-3.70;99.90
26107;DHT22;13866;50.748;12.630;2022-11-20T08:33:07;-3.50;99.90
26107;DHT22;13866;50.748;12.630;2022-11-20T08:35:37;-3.30;99.90
26107;DHT22;13866;50.748;12.630;2022-11-20T08:38:04;-3.10;99.90
26107;DHT22;13866;50.748;12.630;2022-11-20T08:40:30;-3.00;99.90
26107;DHT22;13866;50.748;12.630;2022-11-20T08:42:56;-2.90;99.90
26107;DHT22;13866;50.748;12.630;2022-11-20T08:45:22;-2.80;99.90
26107;DHT22;13866;50.748;12.630;2022-11-20T08:47:48;-2.70;99.90
26107;DHT22;13866;50.748;12.630;2022-11-20T08:50:15;-2.60;99.90
26107;DHT22;13866;50.748;12.630;2022-11-20T08:52:40;-2.50;99.90
26107;DHT22;13866;50.748;12.630;2022-11-20T08:55:07;-2.40;99.90
26107;DHT22;13866;50.748;12.630;2022-11-20T08:57:34;-2.20;99.90
26107;DHT22;13866;50.748;12.630;2022-11-20T08:59:59;-2.10;99.90
26107;DHT22;13866;50.748;12.630;2022-11-20T09:02:25;-2.00;99.90
26107;DHT22;13866;50.748;12.630;2022-11-20T09:04:51;-1.90;99.90
26107;DHT22;13866;50.748;12.630;2022-11-20T09:07:16;-1.80;99.90
26107;DHT22;13866;50.748;12.630;2022-11-20T09:09:42;-1.80;99.90
26107;DHT22;13866;50.748;12.630;2022-11-20T09:12:07;-1.70;99.90
26107;DHT22;13866;50.748;12.630;2022-11-20T09:14:33;-1.70;99.90
26107;DHT22;13866;50.748;12.630;2022-11-20T09:16:59;-1.60;99.90
26107;DHT22;13866;50.748;12.630;2022-11-20T09:19:24;-1.60;99.90
26107;DHT22;13866;50.748;12.630;2022-11-20T09:21:50;-1.50;99.90
26107;DHT22;13866;50.748;12.630;2022-11-20T09:24:16;-1.50;99.90
26107;DHT22;13866;50.748;12.630;2022-11-20T09:26:42;-1.50;99.90
26107;DHT22;13866;50.748;12.630;2022-11-20T09:29:07;-1.50;99.90
26107;DHT22;13866;50.748;12.630;2022-11-20T09:31:33;-1.40;99.90
26107;DHT22;13866;50.748;12.630;2022-11-20T09:33:58;-1.40;99.90
26107;DHT22;13866;50.748;12.630;2022-11-20T09:36:24;-1.30;99.90
26107;DHT22;13866;50.748;12.630;2022-11-20T09:38:50;-1.30;99.90
26107;DHT22;13866;50.748;12.630;2022-11-20T09:41:32;-1.30;99.90
26107;DHT22;13866;50.748;12.630;2022-11-20T09:47:13;-1.20;99.90
26107;DHT22;13866;50.748;12.630;2022-11-20T09:55:09;-1.20;99.90
26107;DHT22;13866;50.748;12.630;2022-11-20T09:57:39;-1.20;99.90
26107;DHT22;13866;50.748;12.630;2022-11-20T10:00:10;-1.20;99.90
26107;DHT22;13866;50.748;12.630;2022-11-20T10:05:37;-1.30;99.90
26107;DHT22;13866;50.748;12.630;2022-11-20T10:11:16;-1.40;99.90
26107;DHT22;13866;50.748;12.630;2022-11-20T10:24:33;-1.30;99.90
26107;DHT22;13866;50.748;12.630;2022-11-20T10:32:42;-1.30;99.90
26107;DHT22;13866;50.748;12.630;2022-11-20T10:37:44;-1.20;99.90
26107;DHT22;13866;50.748;12.630;2022-11-20T10:40:34;-1.20;99.90
26107;DHT22;13866;50.748;12.630;2022-11-20T10:43:04;-1.20;99.90
26107;DHT22;13866;50.748;12.630;2022-11-20T10:45:47;-1.20;99.90
26107;DHT22;13866;50.748;12.630;2022-11-20T10:48:22;-1.20;99.90
26107;DHT22;13866;50.748;12.630;2022-11-20T10:53:54;-1.20;99.90
26107;DHT22;13866;50.748;12.630;2022-11-20T10:56:38;-1.30;99.90
26107;DHT22;13866;50.748;12.630;2022-11-20T10:59:10;-1.30;99.90
26107;DHT22;13866;50.748;12.630;2022-11-20T11:01:43;-1.30;99.90
26107;DHT22;13866;50.748;12.630;2022-11-20T11:04:37;-1.20;99.90
26107;DHT22;13866;50.748;12.630;2022-11-20T11:07:15;-1.10;99.90
26107;DHT22;13866;50.748;12.630;2022-11-20T11:09:49;-1.10;99.90
26107;DHT22;13866;50.748;12.630;2022-11-20T11:12:15;-1.00;99.90
26107;DHT22;13866;50.748;12.630;2022-11-20T11:14:43;-1.00;99.90
26107;DHT22;13866;50.748;12.630;2022-11-20T11:20:17;-1.00;99.90
26107;DHT22;13866;50.748;12.630;2022-11-20T11:25:20;-1.00;99.90
26107;DHT22;13866;50.748;12.630;2022-11-20T11:27:47;-0.90;99.90
26107;DHT22;13866;50.748;12.630;2022-11-20T11:30:18;-0.90;99.90
26107;DHT22;13866;50.748;12.630;2022-11-20T11:32:45;-0.90;99.90
26107;DHT22;13866;50.748;12.630;2022-11-20T11:35:26;-1.00;99.90
26107;DHT22;13866;50.748;12.630;2022-11-20T11:38:01;-1.00;99.90
26107;DHT22;13866;50.748;12.630;2022-11-20T11:40:39;-0.90;99.90
26107;DHT22;13866;50.748;12.630;2022-11-20T11:43:16;-0.90;99.90
26107;DHT22;13866;50.748;12.630;2022-11-20T11:46:02;-0.90;99.90
26107;DHT22;13866;50.748;12.630;2022-11-20T11:48:27;-0.90;99.90
26107;DHT22;13866;50.748;12.630;2022-11-20T11:50:53;-0.90;99.90
26107;DHT22;13866;50.748;12.630;2022-11-20T11:53:21;-0.90;99.90
26107;DHT22;13866;50.748;12.630;2022-11-20T11:56:04;-0.90;99.90
26107;DHT22;13866;50.748;12.630;2022-11-20T11:58:44;-0.90;99.90
26107;DHT22;13866;50.748;12.630;2022-11-20T12:04:16;-0.80;99.90
26107;DHT22;13866;50.748;12.630;2022-11-20T12:06:50;-0.80;99.90
26107;DHT22;13866;50.748;12.630;2022-11-20T12:09:18;-0.70;99.90
26107;DHT22;13866;50.748;12.630;2022-11-20T12:11:47;-0.70;99.90
26107;DHT22;13866;50.748;12.630;2022-11-20T12:14:40;-0.70;99.90
26107;DHT22;13866;50.748;12.630;2022-11-20T12:17:12;-0.70;99.90
26107;DHT22;13866;50.748;12.630;2022-11-20T12:19:38;-0.60;99.90
26107;DHT22;13866;50.748;12.630;2022-11-20T12:25:21;-0.60;99.90
26107;DHT22;13866;50.748;12.630;2022-11-20T12:27:57;-0.60;99.90
26107;DHT22;13866;50.748;12.630;2022-11-20T12:30:27;-0.60;99.90
26107;DHT22;13866;50.748;12.630;2022-11-20T12:53:07;-0.60;99.90
26107;DHT22;13866;50.748;12.630;2022-11-20T12:58:20;-0.60;99.90
26107;DHT22;13866;50.748;12.630;2022-11-20T13:01:00;-0.60;99.90
26107;DHT22;13866;50.748;12.630;2022-11-20T13:03:51;-0.60;99.90
26107;DHT22;13866;50.748;12.630;2022-11-20T13:06:20;-0.60;99.90
26107;DHT22;13866;50.748;12.630;2022-11-20T13:08:54;-0.60;99.90
26107;DHT22;13866;50.748;12.630;2022-11-20T13:19:14;-0.40;99.90
26107;DHT22;13866;50.748;12.630;2022-11-20T13:21:43;-0.40;99.90
26107;DHT22;13866;50.748;12.630;2022-11-20T13:24:23;-0.40;99.90
26107;DHT22;13866;50.748;12.630;2022-11-20T13:29:42;-0.40;99.90
26107;DHT22;13866;50.748;12.630;2022-11-20T13:32:17;-0.30;99.90
26107;DHT22;13866;50.748;12.630;2022-11-20T13:34:54;-0.30;99.90
26107;DHT22;13866;50.748;12.630;2022-11-20T13:37:35;-0.30;99.90
26107;DHT22;13866;50.748;12.630;2022-11-20T13:42:39;-0.30;99.90
26107;DHT22;13866;50.748;12.630;2022-11-20T13:45:20;-0.30;99.90
26107;DHT22;13866;50.748;12.630;2022-11-20T13:47:51;-0.30;99.90
26107;DHT22;13866;50.748;12.630;2022-11-20T13:50:17;-0.30;99.90
26107;DHT22;13866;50.748;12.630;2022-11-20T13:52:52;-0.30;99.90
26107;DHT22;13866;50.748;12.630;2022-11-20T13:58:15;-0.20;99.90
26107;DHT22;13866;50.748;12.630;2022-11-20T14:00:51;-0.20;99.90
26107;DHT22;13866;50.748;12.630;2022-11-20T14:03:22;-0.20;99.90
26107;DHT22;13866;50.748;12.630;2022-11-20T14:05:56;-0.20;99.90
26107;DHT22;13866;50.748;12.630;2022-11-20T14:08:46;-0.20;99.90
26107;DHT22;13866;50.748;12.630;2022-11-20T14:11:25;-0.20;99.90
26107;DHT22;13866;50.748;12.630;2022-11-20T14:14:03;-0.20;99.90
26107;DHT22;13866;50.748;12.630;2022-11-20T14:16:33;-0.20;99.90
26107;DHT22;13866;50.748;12.630;2022-11-20T14:21:48;-0.20;99.90
26107;DHT22;13866;50.748;12.630;2022-11-20T14:24:19;-0.30;99.90
26107;DHT22;13866;50.748;12.630;2022-11-20T14:26:46;-0.30;99.90
26107;DHT22;13866;50.748;12.630;2022-11-20T14:29:19;-0.30;99.90
26107;DHT22;13866;50.748;12.630;2022-11-20T14:31:46;-0.30;99.90
26107;DHT22;13866;50.748;12.630;2022-11-20T14:34:21;-0.30;99.90
26107;DHT22;13866;50.748;12.630;2022-11-20T14:36:55;-0.30;99.90
26107;DHT22;13866;50.748;12.630;2022-11-20T14:39:25;-0.30;99.90
26107;DHT22;13866;50.748;12.630;2022-11-20T14:41:53;-0.40;99.90
26107;DHT22;13866;50.748;12.630;2022-11-20T14:44:29;-0.40;99.90
26107;DHT22;13866;50.748;12.630;2022-11-20T14:46:57;-0.50;99.90
26107;DHT22;13866;50.748;12.630;2022-11-20T14:49:23;-0.50;99.90
26107;DHT22;13866;50.748;12.630;2022-11-20T14:52:02;-0.50;99.90
26107;DHT22;13866;50.748;12.630;2022-11-20T14:54:28;-0.50;99.90
26107;DHT22;13866;50.748;12.630;2022-11-20T14:59:33;-0.70;99.90
26107;DHT22;13866;50.748;12.630;2022-11-20T15:02:02;-0.70;99.90
26107;DHT22;13866;50.748;12.630;2022-11-20T15:04:29;-0.70;99.90
26107;DHT22;13866;50.748;12.630;2022-11-20T15:06:56;-0.70;99.90
26107;DHT22;13866;50.748;12.630;2022-11-20T15:09:22;-0.80;99.90
26107;DHT22;13866;50.748;12.630;2022-11-20T15:11:59;-0.80;99.90
26107;DHT22;13866;50.748;12.630;2022-11-20T15:14:26;-0.80;99.90
26107;DHT22;13866;50.748;12.630;2022-11-20T15:16:52;-0.90;99.90
26107;DHT22;13866;50.748;12.630;2022-11-20T15:19:23;-0.90;99.90
26107;DHT22;13866;50.748;12.630;2022-11-20T15:21:50;-1.00;99.90
26107;DHT22;13866;50.748;12.630;2022-11-20T15:24:16;-1.00;99.90
26107;DHT22;13866;50.748;12.630;2022-11-20T15:26:42;-1.10;99.90
26107;DHT22;13866;50.748;12.630;2022-11-20T15:29:13;-1.10;99.90
26107;DHT22;13866;50.748;12.630;2022-11-20T15:31:40;-1.20;99.90
26107;DHT22;13866;50.748;12.630;2022-11-20T15:34:11;-1.20;99.90
26107;DHT22;13866;50.748;12.630;2022-11-20T15:36:38;-1.20;99.90
26107;DHT22;13866;50.748;12.630;2022-11-20T15:39:03;-1.30;99.90
26107;DHT22;13866;50.748;12.630;2022-11-20T15:41:29;-1.30;99.90
26107;DHT22;13866;50.748;12.630;2022-11-20T15:43:55;-1.40;99.90
26107;DHT22;13866;50.748;12.630;2022-11-20T15:46:26;-1.40;99.90
26107;DHT22;13866;50.748;12.630;2022-11-20T15:48:57;-1.50;99.90
26107;DHT22;13866;50.748;12.630;2022-11-20T15:51:30;-1.50;99.90
26107;DHT22;13866;50.748;12.630;2022-11-20T15:53:57;-1.50;99.90
26107;DHT22;13866;50.748;12.630;2022-11-20T15:56:23;-1.50;99.90
26107;DHT22;13866;50.748;12.630;2022-11-20T15:58:49;-1.60;99.90
26107;DHT22;13866;50.748;12.630;2022-11-20T16:01:17;-1.60;99.90
26107;DHT22;13866;50.748;12.630;2022-11-20T16:03:43;-1.60;99.90
26107;DHT22;13866;50.748;12.630;2022-11-20T16:06:09;-1.60;99.90
26107;DHT22;13866;50.748;12.630;2022-11-20T16:08:34;-1.60;99.90
26107;DHT22;13866;50.748;12.630;2022-11-20T16:11:00;-1.60;99.90
26107;DHT22;13866;50.748;12.630;2022-11-20T16:13:26;-1.50;99.90
26107;DHT22;13866;50.748;12.630;2022-11-20T16:16:22;-1.50;99.90
26107;DHT22;13866;50.748;12.630;2022-11-20T16:18:48;-1.60;99.90
26107;DHT22;13866;50.748;12.630;2022-11-20T16:21:15;-1.60;99.90
26107;DHT22;13866;50.748;12.630;2022-11-20T16:23:41;-1.70;99.90
26107;DHT22;13866;50.748;12.630;2022-11-20T16:26:12;-1.70;99.90
26107;DHT22;13866;50.748;12.630;2022-11-20T16:28:38;-1.70;99.90
26107;DHT22;13866;50.748;12.630;2022-11-20T16:31:15;-1.70;99.90
26107;DHT22;13866;50.748;12.630;2022-11-20T16:33:41;-1.80;99.90
26107;DHT22;13866;50.748;12.630;2022-11-20T16:36:12;-1.90;99.90
26107;DHT22;13866;50.748;12.630;2022-11-20T16:38:38;-1.90;99.90
26107;DHT22;13866;50.748;12.630;2022-11-20T16:41:04;-2.00;99.90
26107;DHT22;13866;50.748;12.630;2022-11-20T16:43:30;-2.00;99.90
26107;DHT22;13866;50.748;12.630;2022-11-20T16:45:56;-2.10;99.90
26107;DHT22;13866;50.748;12.630;2022-11-20T16:48:22;-2.10;99.90
26107;DHT22;13866;50.748;12.630;2022-11-20T16:50:50;-2.00;99.90
26107;DHT22;13866;50.748;12.630;2022-11-20T16:53:18;-2.10;99.90
26107;DHT22;13866;50.748;12.630;2022-11-20T16:55:44;-2.20;99.90
26107;DHT22;13866;50.748;12.630;2022-11-20T16:58:10;-2.30;99.90
26107;DHT22;13866;50.748;12.630;2022-11-20T17:00:39;-2.30;99.90
26107;DHT22;13866;50.748;12.630;2022-11-20T17:03:05;-2.30;99.90
26107;DHT22;13866;50.748;12.630;2022-11-20T17:05:32;-2.40;99.90
26107;DHT22;13866;50.748;12.630;2022-11-20T17:07:58;-2.40;99.90